This is the latest recevied weather packets stored in our database for station/object EB2GLU-13. If no packets are shown the sender has not sent any weather packets the latest 10 day(s).
| Time | Temp. | Humidity | Pressure | Rain* | Wind** | Luminosity | Snow |
|---|---|---|---|---|---|---|---|
| 1777411163 | 16.67° C | 87% | 1009.9 hPa | 0 mm | - | - | - |
| 1777410413 | 16.11° C | 88% | 1009.8 hPa | 0 mm | - | - | - |
| 1777409663 | 16.11° C | 87% | 1010 hPa | 0 mm | - | - | - |
| 1777408913 | 16.11° C | 88% | 1010.1 hPa | 0 mm | - | - | - |
| 1777408163 | 16.11° C | 88% | 1010 hPa | 0 mm | - | - | - |
| 1777407413 | 16.11° C | 88% | 1009.8 hPa | 0 mm | - | - | - |
| 1777406663 | 16.11° C | 90% | 1010 hPa | 0 mm | - | - | - |
| 1777405913 | 16.11° C | 89% | 1010 hPa | 0 mm | - | - | - |
| 1777405163 | 16.11° C | 89% | 1009.9 hPa | 0 mm | - | - | - |
| 1777404413 | 16.11° C | 88% | 1009.9 hPa | 0 mm | - | - | - |
| 1777403663 | 16.67° C | 88% | 1010 hPa | 0 mm | - | - | - |
| 1777402913 | 16.11° C | 89% | 1009.8 hPa | 0 mm | - | - | - |
| 1777402163 | 16.11° C | 89% | 1009.6 hPa | 0 mm | - | - | - |
| 1777401413 | 16.11° C | 88% | 1009.7 hPa | 0 mm | - | - | - |
| 1777400663 | 16.67° C | 87% | 1009.7 hPa | 0 mm | - | - | - |
| 1777399913 | 16.67° C | 87% | 1009.5 hPa | 0 mm | - | - | - |
| 1777399163 | 17.22° C | 86% | 1009.7 hPa | 0 mm | - | - | - |
| 1777398413 | 17.22° C | 86% | 1009.8 hPa | 0 mm | - | - | - |
| 1777397663 | 17.22° C | 86% | 1010.1 hPa | 0 mm | - | - | - |
| 1777396913 | 17.22° C | 86% | 1009.8 hPa | 0 mm | - | - | - |
| 1777396163 | 17.78° C | 84% | 1009.8 hPa | 0 mm | - | - | - |
| 1777395412 | 18.33° C | 82% | 1009.9 hPa | 0 mm | - | - | - |
| 1777394663 | 18.33° C | 81% | 1009.7 hPa | 0 mm | - | - | - |
| 1777393912 | 19.44° C | 79% | 1010 hPa | 0 mm | - | - | - |
| 1777393162 | 18.89° C | 82% | 1009.8 hPa | 0 mm | - | - | - |
* Rain latest hour (hover to see other rain measurements)
** Current wind speed in m/s (hover to see current wind gust speed)